Time;durP1;ratioP1;P1;durP2;ratioP2;P2;SDS_P1;SDS_P2;PMS_P1;PMS_P2;Temp;Humidity;BMP_temperature;BMP_pressure;BME280_temperature;BME280_humidity;BME280_pressure;Samples;Min_cycle;Max_cycle;Signal;HPM_P1;HPM_P2
2023/07/02 06:38:50;;;;;;;32.92;16.27;;;;;;;;;;5556683;22;20354;-60
2023/07/02 06:41:17;;;;;;;50.60;15.23;;;;;;;;;;5127050;27;20139;-60
2023/07/02 06:43:43;;;;;;;32.88;14.73;;;;;;;;;;5140685;27;20035;-60
2023/07/02 06:46:10;;;;;;;28.02;13.57;;;;;;;;;;5158446;22;20513;-53
2023/07/02 06:48:36;;;;;;;28.42;13.93;;;;;;;;;;5105864;27;20052;-60
2023/07/02 06:51:05;;;;;;;35.08;14.00;;;;;;;;;;5101321;27;20072;-60
2023/07/02 06:53:31;;;;;;;27.83;13.18;;;;;;;;;;5104087;27;20054;-60
2023/07/02 06:55:57;;;;;;;35.83;14.35;;;;;;;;;;5102906;27;20079;-60
2023/07/02 06:58:23;;;;;;;27.05;13.45;;;;;;;;;;5104049;27;20547;-60
2023/07/02 07:00:49;;;;;;;21.83;8.73;;;;;;;;;;5103491;27;20549;-60
2023/07/02 07:03:16;;;;;;;29.70;13.45;;;;;;;;;;5103276;27;20503;-60
2023/07/02 07:05:42;;;;;;;30.48;14.80;;;;;;;;;;5103518;27;20048;-60
2023/07/02 07:08:09;;;;;;;32.78;13.48;;;;;;;;;;5102026;27;20385;-60
2023/07/02 07:10:35;;;;;;;32.53;15.10;;;;;;;;;;5102682;27;20047;-60
2023/07/02 07:13:02;;;;;;;27.70;13.43;;;;;;;;;;5102801;27;20040;-61
2023/07/02 07:15:30;;;;;;;32.45;15.50;;;;;;;;;;5103044;27;20509;-61
2023/07/02 07:17:56;;;;;;;32.92;13.85;;;;;;;;;;5103940;27;20128;-60
2023/07/02 07:20:23;;;;;;;27.15;12.60;;;;;;;;;;5103796;27;20063;-60
2023/07/02 07:22:49;;;;;;;26.90;13.40;;;;;;;;;;5103533;27;20517;-60
2023/07/02 07:25:15;;;;;;;28.83;12.65;;;;;;;;;;5103408;27;20044;-60
2023/07/02 07:27:41;;;;;;;28.90;12.77;;;;;;;;;;5102951;27;20044;-60
2023/07/02 07:30:07;;;;;;;22.77;11.52;;;;;;;;;;5104056;27;20084;-60
2023/07/02 07:32:33;;;;;;;29.13;14.20;;;;;;;;;;5103930;27;20036;-60
2023/07/02 07:34:59;;;;;;;29.02;13.43;;;;;;;;;;5102372;27;20094;-60
2023/07/02 07:37:25;;;;;;;27.25;13.40;;;;;;;;;;5102995;27;20040;-60
2023/07/02 07:39:51;;;;;;;27.27;12.95;;;;;;;;;;5088967;27;20600;-60
2023/07/02 07:42:18;;;;;;;27.45;13.23;;;;;;;;;;5090412;27;20040;-60
2023/07/02 07:44:47;;;;;;;26.92;11.45;;;;;;;;;;5089254;27;20045;-60
2023/07/02 07:47:13;;;;;;;24.23;13.45;;;;;;;;;;5094044;27;20052;-60
2023/07/02 07:49:39;;;;;;;32.65;13.27;;;;;;;;;;5090311;27;20037;-60
2023/07/02 07:52:06;;;;;;;32.83;13.13;;;;;;;;;;5089295;27;20081;-60
2023/07/02 07:54:34;;;;;;;30.05;13.70;;;;;;;;;;5089731;27;20067;-60
2023/07/02 07:57:00;;;;;;;30.15;13.55;;;;;;;;;;5090366;27;20502;-60
2023/07/02 07:59:26;;;;;;;26.73;11.18;;;;;;;;;;5090262;27;20055;-60
2023/07/02 08:01:52;;;;;;;25.30;12.65;;;;;;;;;;5089978;27;20147;-60
2023/07/02 08:04:18;;;;;;;28.35;11.55;;;;;;;;;;5088346;28;20044;-60
2023/07/02 08:06:44;;;;;;;25.05;13.00;;;;;;;;;;5089153;27;20040;-60
2023/07/02 08:09:11;;;;;;;26.50;12.40;;;;;;;;;;5089406;27;20044;-60
2023/07/02 08:11:37;;;;;;;26.23;11.23;;;;;;;;;;5090076;27;20526;-60
2023/07/02 08:14:03;;;;;;;27.58;12.65;;;;;;;;;;5090342;27;20059;-61
2023/07/02 08:16:29;;;;;;;23.00;11.52;;;;;;;;;;5088880;27;20684;-60
2023/07/02 08:18:55;;;;;;;27.63;11.48;;;;;;;;;;5089147;27;20532;-61
2023/07/02 08:21:21;;;;;;;21.33;10.88;;;;;;;;;;5089617;27;20094;-60
2023/07/02 08:23:47;;;;;;;29.08;14.48;;;;;;;;;;5089249;27;20124;-60
2023/07/02 08:26:14;;;;;;;21.10;11.48;;;;;;;;;;5088835;27;20048;-60
2023/07/02 08:28:40;;;;;;;21.88;10.95;;;;;;;;;;5088702;27;20039;-61
2023/07/02 08:31:06;;;;;;;26.50;12.15;;;;;;;;;;5089013;27;20068;-53
2023/07/02 08:33:32;;;;;;;23.75;11.15;;;;;;;;;;5088726;27;20043;-53
2023/07/02 08:36:00;;;;;;;20.55;11.30;;;;;;;;;;5087656;27;20636;-52
2023/07/02 08:38:26;;;;;;;26.05;10.82;;;;;;;;;;5088937;27;20033;-52
2023/07/02 08:40:52;;;;;;;22.60;10.57;;;;;;;;;;5088149;27;20043;-53
2023/07/02 08:43:18;;;;;;;20.10;10.65;;;;;;;;;;5088615;27;20044;-53
2023/07/02 08:45:45;;;;;;;25.83;10.52;;;;;;;;;;5088933;27;20478;-52
2023/07/02 08:48:12;;;;;;;19.50;10.07;;;;;;;;;;5088809;27;20050;-52
2023/07/02 08:50:38;;;;;;;21.40;10.82;;;;;;;;;;5086393;27;20704;-52
2023/07/02 08:53:04;;;;;;;20.83;9.65;;;;;;;;;;5088178;27;20736;-52
2023/07/02 08:55:30;;;;;;;19.17;9.32;;;;;;;;;;5089311;27;20078;-52
2023/07/02 08:57:59;;;;;;;18.42;8.70;;;;;;;;;;5088593;27;20047;-53
2023/07/02 09:00:26;;;;;;;23.85;10.23;;;;;;;;;;5088622;27;20036;-53
2023/07/02 09:02:52;;;;;;;16.95;7.97;;;;;;;;;;5087530;27;20384;-52
2023/07/02 09:05:18;;;;;;;25.45;10.57;;;;;;;;;;5088675;27;20044;-52
2023/07/02 09:07:47;;;;;;;19.65;9.43;;;;;;;;;;5087323;27;20490;-52
2023/07/02 09:10:26;;;;;;;20.15;8.77;;;;;;;;;;5088652;27;20056;-52
2023/07/02 09:13:02;;;;;;;24.15;10.80;;;;;;;;;;5077454;27;20041;-52
2023/07/02 09:15:35;;;;;;;18.95;9.15;;;;;;;;;;5086705;27;20566;-53
2023/07/02 09:18:01;;;;;;;18.50;8.45;;;;;;;;;;5087576;27;20858;-52
2023/07/02 09:20:33;;;;;;;20.45;9.93;;;;;;;;;;5088257;27;20036;-53
2023/07/02 09:22:59;;;;;;;22.70;9.98;;;;;;;;;;5093450;27;20035;-52
2023/07/02 09:25:37;;;;;;;21.20;8.18;;;;;;;;;;5088322;27;20514;-52
2023/07/02 09:28:04;;;;;;;23.23;9.32;;;;;;;;;;5086891;27;20044;-52
2023/07/02 09:30:30;;;;;;;24.38;8.13;;;;;;;;;;5088569;27;20585;-52
2023/07/02 09:33:06;;;;;;;13.82;7.07;;;;;;;;;;5076610;28;20665;-52
2023/07/02 09:35:32;;;;;;;22.50;8.77;;;;;;;;;;5087293;27;20044;-52
2023/07/02 09:37:58;;;;;;;19.80;9.38;;;;;;;;;;5087492;27;20040;-53
2023/07/02 09:40:28;;;;;;;22.00;9.10;;;;;;;;;;5086433;27;20047;-52
2023/07/02 09:42:56;;;;;;;17.35;8.90;;;;;;;;;;5087754;27;20040;-52
2023/07/02 09:45:22;;;;;;;17.70;7.82;;;;;;;;;;5087689;27;20035;-53
2023/07/02 09:47:52;;;;;;;16.63;9.25;;;;;;;;;;5086999;27;20051;-52
2023/07/02 09:50:19;;;;;;;17.25;9.77;;;;;;;;;;5086463;27;20091;-53
2023/07/02 09:52:46;;;;;;;18.08;8.88;;;;;;;;;;5086587;27;20097;-52
2023/07/02 09:55:12;;;;;;;22.65;9.20;;;;;;;;;;5087106;27;20044;-52
2023/07/02 09:57:39;;;;;;;22.67;9.48;;;;;;;;;;5086999;27;20106;-52
2023/07/02 10:00:07;;;;;;;14.05;7.93;;;;;;;;;;5088055;27;20040;-52
2023/07/02 10:02:34;;;;;;;16.30;7.97;;;;;;;;;;5087344;27;20573;-52
2023/07/02 10:05:00;;;;;;;18.95;8.85;;;;;;;;;;5086455;27;20541;-52
2023/07/02 10:07:27;;;;;;;15.13;7.60;;;;;;;;;;5087801;27;20048;-53
2023/07/02 10:09:53;;;;;;;12.95;6.93;;;;;;;;;;5088203;27;20048;-53
2023/07/02 10:12:20;;;;;;;21.25;9.63;;;;;;;;;;5087812;27;20713;-53
2023/07/02 10:14:47;;;;;;;20.23;9.07;;;;;;;;;;5086651;27;20526;-52
2023/07/02 10:17:32;;;;;;;18.60;8.55;;;;;;;;;;5087504;27;20444;-53
2023/07/02 10:20:00;;;;;;;23.42;11.02;;;;;;;;;;5086927;27;20685;-53
2023/07/02 10:22:26;;;;;;;15.82;9.68;;;;;;;;;;5087270;27;20043;-53
2023/07/02 10:25:03;;;;;;;13.10;6.95;;;;;;;;;;5088011;27;20036;-53
2023/07/02 10:27:36;;;;;;;19.67;8.93;;;;;;;;;;5087591;27;20045;-53
2023/07/02 10:30:03;;;;;;;16.58;9.27;;;;;;;;;;5087875;27;20028;-53
2023/07/02 10:32:29;;;;;;;23.13;9.88;;;;;;;;;;5085642;27;20052;-53
2023/07/02 10:34:56;;;;;;;14.50;7.65;;;;;;;;;;5087622;27;20543;-52
2023/07/02 10:37:22;;;;;;;21.75;8.77;;;;;;;;;;5087391;27;20048;-53
2023/07/02 10:39:48;;;;;;;18.48;8.82;;;;;;;;;;5087825;27;20032;-53
2023/07/02 10:42:14;;;;;;;22.50;9.77;;;;;;;;;;5086114;27;20044;-52
2023/07/02 10:45:07;;;;;;;20.17;9.77;;;;;;;;;;5086512;27;20033;-53
2023/07/02 10:47:33;;;;;;;20.20;10.30;;;;;;;;;;5083494;27;20054;-53
2023/07/02 10:49:59;;;;;;;18.38;8.60;;;;;;;;;;5075561;28;20074;-53
2023/07/02 10:52:25;;;;;;;22.35;8.07;;;;;;;;;;5085293;27;20044;-52
2023/07/02 10:54:51;;;;;;;17.40;8.73;;;;;;;;;;5086962;27;20051;-53
2023/07/02 10:57:21;;;;;;;16.23;8.18;;;;;;;;;;5086444;27;20033;-53
2023/07/02 10:59:48;;;;;;;13.73;7.95;;;;;;;;;;5086297;27;20491;-53
2023/07/02 11:02:14;;;;;;;25.63;8.93;;;;;;;;;;5086938;27;20093;-53
2023/07/02 11:04:40;;;;;;;14.00;8.77;;;;;;;;;;5086629;27;20155;-52
2023/07/02 11:07:06;;;;;;;21.42;9.10;;;;;;;;;;5086822;27;20033;-53
2023/07/02 11:09:33;;;;;;;17.35;9.02;;;;;;;;;;5086785;27;20036;-52
2023/07/02 11:12:00;;;;;;;16.80;9.02;;;;;;;;;;5092172;27;20391;-52
2023/07/02 11:14:29;;;;;;;16.77;8.38;;;;;;;;;;5094067;27;20590;-52
2023/07/02 11:16:55;;;;;;;17.33;9.48;;;;;;;;;;5089206;27;20072;-52
2023/07/02 11:19:22;;;;;;;20.20;8.50;;;;;;;;;;5090595;27;20535;-53
2023/07/02 11:21:52;;;;;;;13.57;8.45;;;;;;;;;;5090132;27;20044;-53
2023/07/02 11:24:26;;;;;;;17.23;9.18;;;;;;;;;;5086245;28;20150;-53
2023/07/02 11:26:53;;;;;;;18.55;10.73;;;;;;;;;;5088918;27;20040;-53
2023/07/02 11:29:19;;;;;;;17.70;8.10;;;;;;;;;;5090081;27;20055;-53
2023/07/02 11:31:45;;;;;;;17.60;9.25;;;;;;;;;;5093062;27;20471;-53
2023/07/02 11:34:37;;;;;;;19.02;9.55;;;;;;;;;;5092235;27;20102;-53
2023/07/02 11:37:04;;;;;;;15.82;8.52;;;;;;;;;;5090212;27;20044;-53
2023/07/02 11:39:30;;;;;;;19.40;10.20;;;;;;;;;;5093278;27;22414;-53
2023/07/02 11:41:56;;;;;;;18.95;8.88;;;;;;;;;;5092960;27;20045;-53
2023/07/02 11:44:22;;;;;;;19.60;8.25;;;;;;;;;;5092675;27;20135;-53
2023/07/02 11:46:49;;;;;;;17.98;8.13;;;;;;;;;;5092676;27;20044;-53
2023/07/02 11:49:15;;;;;;;16.00;8.48;;;;;;;;;;5092602;27;20562;-53
2023/07/02 11:51:47;;;;;;;15.45;8.80;;;;;;;;;;5092304;27;20040;-53
2023/07/02 11:54:14;;;;;;;15.40;9.60;;;;;;;;;;5092846;27;20072;-53
2023/07/02 11:56:42;;;;;;;20.77;8.80;;;;;;;;;;5092366;27;20044;-53
2023/07/02 11:59:08;;;;;;;21.25;9.18;;;;;;;;;;5093112;27;20051;-53
2023/07/02 12:01:34;;;;;;;20.52;8.93;;;;;;;;;;5092700;27;20040;-53
2023/07/02 12:04:00;;;;;;;15.25;9.25;;;;;;;;;;5092900;27;20083;-53
2023/07/02 12:06:27;;;;;;;12.68;7.40;;;;;;;;;;5092696;27;20040;-53
2023/07/02 12:08:53;;;;;;;22.92;8.13;;;;;;;;;;5091398;27;20120;-53
2023/07/02 12:11:19;;;;;;;15.27;7.65;;;;;;;;;;5093194;27;20330;-53
2023/07/02 12:13:45;;;;;;;16.90;9.00;;;;;;;;;;5092186;27;20114;-53
2023/07/02 12:16:11;;;;;;;22.70;9.20;;;;;;;;;;5093073;27;20558;-53
2023/07/02 12:18:37;;;;;;;18.83;8.75;;;;;;;;;;5092509;27;20040;-53
2023/07/02 12:21:03;;;;;;;17.63;8.20;;;;;;;;;;5092122;27;20118;-53
2023/07/02 12:23:29;;;;;;;19.90;7.50;;;;;;;;;;5080911;28;20556;-53
2023/07/02 12:25:55;;;;;;;20.08;10.55;;;;;;;;;;5091845;27;20044;-53
2023/07/02 12:28:21;;;;;;;14.18;7.70;;;;;;;;;;5092012;27;20044;-53
2023/07/02 12:30:47;;;;;;;16.10;7.60;;;;;;;;;;5091591;27;20120;-53
2023/07/02 12:33:13;;;;;;;16.65;7.55;;;;;;;;;;5092245;27;20102;-53
2023/07/02 12:35:39;;;;;;;18.70;9.02;;;;;;;;;;5079084;27;20462;-53
2023/07/02 12:38:08;;;;;;;16.40;8.98;;;;;;;;;;5091753;27;20546;-53
2023/07/02 12:40:34;;;;;;;19.83;8.43;;;;;;;;;;5091734;27;20075;-53
2023/07/02 12:43:00;;;;;;;20.88;8.35;;;;;;;;;;5092345;27;20043;-53
2023/07/02 12:45:26;;;;;;;12.60;7.13;;;;;;;;;;5092423;27;20075;-53
2023/07/02 12:47:52;;;;;;;19.88;8.88;;;;;;;;;;5091184;27;20060;-53
2023/07/02 12:50:18;;;;;;;17.67;8.38;;;;;;;;;;5079994;27;20044;-53
2023/07/02 12:52:45;;;;;;;20.38;9.10;;;;;;;;;;5096370;27;20036;-53
2023/07/02 12:55:11;;;;;;;13.23;8.35;;;;;;;;;;5091421;27;20147;-52
2023/07/02 12:57:37;;;;;;;12.43;7.65;;;;;;;;;;5091347;27;20147;-53
2023/07/02 13:00:06;;;;;;;16.98;8.95;;;;;;;;;;5096788;27;20067;-53
2023/07/02 13:02:32;;;;;;;17.40;7.82;;;;;;;;;;5090900;27;20789;-53
2023/07/02 13:04:58;;;;;;;18.05;8.32;;;;;;;;;;5090429;27;20800;-53
2023/07/02 13:07:25;;;;;;;21.48;9.48;;;;;;;;;;5091289;27;21268;-53
2023/07/02 13:09:51;;;;;;;17.60;8.80;;;;;;;;;;5091987;27;20560;-53
2023/07/02 13:12:18;;;;;;;13.65;7.55;;;;;;;;;;5091342;27;20602;-53
2023/07/02 13:14:44;;;;;;;16.05;7.55;;;;;;;;;;5091273;27;20046;-53
2023/07/02 13:17:10;;;;;;;19.50;8.10;;;;;;;;;;5091582;27;20930;-53
2023/07/02 13:19:36;;;;;;;17.33;8.23;;;;;;;;;;5091191;27;20052;-53
2023/07/02 13:22:02;;;;;;;19.83;8.07;;;;;;;;;;5088367;28;21083;-53
2023/07/02 13:24:34;;;;;;;17.52;8.15;;;;;;;;;;5092132;27;20086;-53
2023/07/02 13:27:00;;;;;;;18.90;8.10;;;;;;;;;;5091315;27;20129;-53
2023/07/02 13:29:26;;;;;;;15.00;6.95;;;;;;;;;;5090884;27;20044;-52
2023/07/02 13:31:52;;;;;;;18.40;7.72;;;;;;;;;;5091708;27;20098;-53
2023/07/02 13:34:18;;;;;;;20.02;8.63;;;;;;;;;;5095874;27;20069;-53
2023/07/02 13:36:44;;;;;;;17.30;7.80;;;;;;;;;;5090967;27;20048;-53
2023/07/02 13:39:10;;;;;;;15.02;7.70;;;;;;;;;;5090534;27;20044;-53
2023/07/02 13:41:36;;;;;;;16.15;7.78;;;;;;;;;;5091270;27;20048;-53
2023/07/02 13:44:02;;;;;;;22.02;7.82;;;;;;;;;;5091544;27;20044;-53
2023/07/02 13:46:28;;;;;;;11.57;6.60;;;;;;;;;;5090990;27;20518;-53
2023/07/02 13:48:54;;;;;;;10.30;5.68;;;;;;;;;;5090365;27;20051;-53
2023/07/02 13:51:20;;;;;;;14.35;7.30;;;;;;;;;;5091120;27;20153;-53
2023/07/02 13:53:46;;;;;;;17.90;8.05;;;;;;;;;;5089961;27;20454;-53
2023/07/02 13:56:13;;;;;;;13.55;6.90;;;;;;;;;;5090751;27;20040;-53
2023/07/02 13:59:08;;;;;;;15.25;8.02;;;;;;;;;;5090986;27;20435;-53
2023/07/02 14:01:34;;;;;;;16.48;7.63;;;;;;;;;;5079677;27;20059;-53
2023/07/02 14:04:01;;;;;;;16.30;6.82;;;;;;;;;;5095563;27;20060;-53
2023/07/02 14:06:27;;;;;;;17.42;8.15;;;;;;;;;;5090907;27;20036;-53
2023/07/02 14:08:53;;;;;;;11.38;7.10;;;;;;;;;;5090031;27;20052;-53
2023/07/02 14:11:19;;;;;;;15.23;6.72;;;;;;;;;;5090375;27;20043;-53
2023/07/02 14:13:45;;;;;;;12.48;6.40;;;;;;;;;;5090460;27;20036;-53
2023/07/02 14:16:11;;;;;;;18.45;8.30;;;;;;;;;;5090730;27;20067;-52
2023/07/02 14:18:38;;;;;;;16.98;7.80;;;;;;;;;;5090104;27;20082;-53
2023/07/02 14:21:04;;;;;;;19.23;8.07;;;;;;;;;;5094228;27;20070;-53
2023/07/02 14:23:30;;;;;;;14.98;7.45;;;;;;;;;;5090133;27;20072;-53
2023/07/02 14:25:56;;;;;;;18.13;7.72;;;;;;;;;;5090482;27;20041;-53
2023/07/02 14:28:22;;;;;;;12.65;7.60;;;;;;;;;;5090242;27;20075;-53
2023/07/02 14:30:48;;;;;;;15.50;8.00;;;;;;;;;;5090387;27;20040;-53
2023/07/02 14:33:15;;;;;;;15.85;7.47;;;;;;;;;;5090513;27;20123;-53
2023/07/02 14:35:41;;;;;;;13.02;5.80;;;;;;;;;;5090964;27;20033;-53
2023/07/02 14:38:07;;;;;;;13.30;7.38;;;;;;;;;;5089992;27;20121;-53
2023/07/02 14:40:33;;;;;;;13.65;6.40;;;;;;;;;;5089448;27;20040;-53
2023/07/02 14:43:00;;;;;;;17.52;7.10;;;;;;;;;;5089522;27;20040;-53
2023/07/02 14:45:26;;;;;;;14.63;7.47;;;;;;;;;;5090561;27;20051;-53
2023/07/02 14:47:52;;;;;;;13.45;7.65;;;;;;;;;;5088973;27;20059;-53
2023/07/02 14:50:18;;;;;;;12.43;6.57;;;;;;;;;;5093070;27;20531;-53
2023/07/02 14:52:44;;;;;;;10.93;5.60;;;;;;;;;;5093089;27;20131;-53
2023/07/02 14:55:10;;;;;;;11.63;6.03;;;;;;;;;;5089939;27;20943;-53
2023/07/02 14:57:36;;;;;;;17.20;9.52;;;;;;;;;;5093724;27;20116;-53
2023/07/02 15:00:02;;;;;;;14.23;6.75;;;;;;;;;;5093733;27;20051;-53
2023/07/02 15:02:28;;;;;;;16.25;7.68;;;;;;;;;;5093772;27;20049;-53
2023/07/02 15:04:54;;;;;;;16.05;6.47;;;;;;;;;;5093508;27;20071;-53
2023/07/02 15:07:20;;;;;;;13.30;6.15;;;;;;;;;;5093217;27;20087;-53
2023/07/02 15:09:47;;;;;;;16.20;5.95;;;;;;;;;;5092998;27;20086;-53
2023/07/02 15:12:13;;;;;;;16.63;7.50;;;;;;;;;;5093184;27;20063;-53
2023/07/02 15:14:39;;;;;;;16.45;7.97;;;;;;;;;;5093694;27;20093;-53
2023/07/02 15:17:05;;;;;;;17.15;7.10;;;;;;;;;;5092703;27;20040;-53
2023/07/02 15:19:31;;;;;;;11.57;6.32;;;;;;;;;;5092247;27;20523;-51
2023/07/02 15:21:57;;;;;;;20.30;6.40;;;;;;;;;;5093303;27;20070;-51
2023/07/02 15:24:23;;;;;;;13.50;5.57;;;;;;;;;;5093127;27;20627;-53
2023/07/02 15:26:49;;;;;;;12.52;6.53;;;;;;;;;;5093204;27;20099;-62
2023/07/02 15:29:15;;;;;;;12.75;6.10;;;;;;;;;;5092994;27;20115;-53
2023/07/02 15:31:45;;;;;;;14.23;6.80;;;;;;;;;;5093665;27;20036;-53
2023/07/02 15:34:14;;;;;;;13.30;6.40;;;;;;;;;;5092432;27;20037;-53
2023/07/02 15:36:40;;;;;;;13.38;7.47;;;;;;;;;;5092677;27;20044;-53
2023/07/02 15:39:06;;;;;;;14.57;6.95;;;;;;;;;;5092321;27;20558;-53
2023/07/02 15:41:32;;;;;;;10.70;5.72;;;;;;;;;;5092334;27;20534;-53
2023/07/02 15:44:03;;;;;;;14.23;6.90;;;;;;;;;;5092184;27;20609;-53
2023/07/02 15:46:29;;;;;;;11.75;6.05;;;;;;;;;;5092451;27;20053;-54
2023/07/02 15:48:56;;;;;;;15.13;8.02;;;;;;;;;;5092744;27;20032;-53
2023/07/02 15:51:24;;;;;;;13.65;7.15;;;;;;;;;;5091742;27;20515;-53
2023/07/02 15:53:51;;;;;;;15.73;6.93;;;;;;;;;;5080887;28;20072;-53
2023/07/02 15:56:17;;;;;;;12.57;6.10;;;;;;;;;;5092757;27;20969;-52
2023/07/02 15:58:43;;;;;;;12.65;5.47;;;;;;;;;;5092406;27;20040;-51
2023/07/02 16:01:13;;;;;;;12.77;6.22;;;;;;;;;;5091696;27;20036;-52
2023/07/02 16:03:39;;;;;;;16.20;6.32;;;;;;;;;;5092862;27;20098;-51
2023/07/02 16:06:06;;;;;;;17.30;6.95;;;;;;;;;;5092501;27;20852;-51
2023/07/02 16:08:32;;;;;;;17.67;6.30;;;;;;;;;;5092815;27;20052;-51
2023/07/02 16:10:59;;;;;;;12.07;6.00;;;;;;;;;;5091712;27;20037;-51
2023/07/02 16:13:25;;;;;;;16.92;6.15;;;;;;;;;;5092780;27;20127;-52
2023/07/02 16:15:51;;;;;;;16.30;5.63;;;;;;;;;;5091550;27;20075;-52
2023/07/02 16:18:17;;;;;;;14.95;5.70;;;;;;;;;;5092073;27;20055;-53
2023/07/02 16:20:43;;;;;;;13.38;6.40;;;;;;;;;;5080729;28;20052;-52
2023/07/02 16:23:09;;;;;;;16.65;6.57;;;;;;;;;;5092340;27;20094;-52
2023/07/02 16:25:35;;;;;;;12.10;5.50;;;;;;;;;;5092347;27;20048;-52
2023/07/02 16:28:03;;;;;;;13.23;5.78;;;;;;;;;;5091539;27;20036;-52
2023/07/02 16:30:29;;;;;;;15.48;6.25;;;;;;;;;;5093147;27;20060;-52
2023/07/02 16:32:55;;;;;;;15.13;6.05;;;;;;;;;;5091830;27;20044;-52
2023/07/02 16:35:21;;;;;;;14.95;6.40;;;;;;;;;;5091986;27;20044;-52
2023/07/02 16:37:47;;;;;;;16.48;6.15;;;;;;;;;;5091357;27;20045;-52
2023/07/02 16:40:13;;;;;;;10.60;5.40;;;;;;;;;;5092106;27;20577;-52
2023/07/02 16:42:39;;;;;;;13.00;5.25;;;;;;;;;;5092366;27;20044;-52
2023/07/02 16:45:05;;;;;;;10.88;5.50;;;;;;;;;;5092082;27;20045;-52
2023/07/02 16:47:35;;;;;;;10.63;5.03;;;;;;;;;;5091444;27;20048;-54
2023/07/02 16:50:01;;;;;;;9.38;4.80;;;;;;;;;;5096571;27;20091;-52
2023/07/02 16:52:28;;;;;;;17.90;5.03;;;;;;;;;;5091565;27;20050;-52
2023/07/02 16:54:54;;;;;;;16.85;7.28;;;;;;;;;;5091778;27;20468;-52
2023/07/02 16:57:20;;;;;;;14.82;4.97;;;;;;;;;;5090985;27;20035;-52
2023/07/02 16:59:46;;;;;;;13.60;6.03;;;;;;;;;;5091344;27;20115;-52
2023/07/02 17:02:12;;;;;;;15.73;5.35;;;;;;;;;;5091784;27;20040;-52
2023/07/02 17:04:38;;;;;;;12.07;6.18;;;;;;;;;;5091583;27;20095;-52
2023/07/02 17:07:04;;;;;;;15.82;6.70;;;;;;;;;;5091632;27;20045;-52
2023/07/02 17:09:36;;;;;;;14.00;6.55;;;;;;;;;;5091184;27;20067;-52
2023/07/02 17:12:09;;;;;;;13.82;5.13;;;;;;;;;;5071460;28;20059;-52
2023/07/02 17:14:37;;;;;;;11.93;4.53;;;;;;;;;;5090489;27;20052;-52
2023/07/02 17:17:08;;;;;;;15.02;5.43;;;;;;;;;;5090939;27;20045;-52
2023/07/02 17:19:36;;;;;;;11.18;5.30;;;;;;;;;;5090679;27;20040;-52
2023/07/02 17:22:03;;;;;;;19.02;6.50;;;;;;;;;;5091566;27;20051;-52
2023/07/02 17:24:31;;;;;;;16.13;7.32;;;;;;;;;;5095979;27;20533;-52
2023/07/02 17:26:58;;;;;;;15.77;4.93;;;;;;;;;;5091223;27;20043;-52
2023/07/02 17:29:24;;;;;;;16.73;5.75;;;;;;;;;;5091991;27;20686;-52
2023/07/02 17:31:51;;;;;;;11.85;4.90;;;;;;;;;;5090959;27;20045;-52
2023/07/02 17:34:21;;;;;;;10.23;3.75;;;;;;;;;;5090671;27;20518;-52
2023/07/02 17:36:51;;;;;;;10.55;5.15;;;;;;;;;;5091401;27;20039;-52
2023/07/02 17:39:18;;;;;;;12.85;5.15;;;;;;;;;;5090713;27;20071;-52
2023/07/02 17:41:45;;;;;;;12.82;4.25;;;;;;;;;;5091155;27;20570;-52
2023/07/02 17:44:11;;;;;;;9.00;4.18;;;;;;;;;;5090697;27;20051;-52
2023/07/02 17:46:37;;;;;;;9.75;4.53;;;;;;;;;;5091419;27;20055;-51
2023/07/02 17:49:04;;;;;;;12.60;4.40;;;;;;;;;;5086645;28;20462;-52
2023/07/02 17:51:30;;;;;;;10.15;5.22;;;;;;;;;;5090952;27;20036;-52
2023/07/02 17:53:56;;;;;;;9.07;3.63;;;;;;;;;;5090367;27;20040;-52
2023/07/02 17:56:22;;;;;;;11.32;3.90;;;;;;;;;;5091179;27;20036;-51
2023/07/02 17:58:48;;;;;;;8.35;3.38;;;;;;;;;;5079080;28;20037;-52
2023/07/02 18:01:16;;;;;;;7.88;2.83;;;;;;;;;;5089798;27;20119;-52
2023/07/02 18:03:42;;;;;;;10.73;3.17;;;;;;;;;;5090502;27;20105;-51
2023/07/02 18:06:08;;;;;;;6.47;2.92;;;;;;;;;;5090133;27;20040;-52
2023/07/02 18:08:34;;;;;;;9.25;3.80;;;;;;;;;;5090776;27;20127;-52
2023/07/02 18:11:00;;;;;;;10.77;4.13;;;;;;;;;;5090387;27;20123;-52
2023/07/02 18:13:27;;;;;;;9.55;3.63;;;;;;;;;;5090820;27;20092;-52
2023/07/02 18:15:53;;;;;;;7.57;3.35;;;;;;;;;;5090746;27;20036;-52
2023/07/02 18:18:19;;;;;;;8.25;3.20;;;;;;;;;;5090088;27;20098;-52
2023/07/02 18:20:46;;;;;;;7.53;3.28;;;;;;;;;;5089893;27;20045;-52
2023/07/02 18:23:12;;;;;;;12.25;3.88;;;;;;;;;;5090610;27;20086;-52
2023/07/02 18:25:38;;;;;;;8.52;2.97;;;;;;;;;;5090504;27;20577;-52
2023/07/02 18:28:08;;;;;;;11.30;4.15;;;;;;;;;;5090032;27;20452;-52
2023/07/02 18:30:36;;;;;;;7.97;3.47;;;;;;;;;;5090728;27;20043;-52
2023/07/02 18:33:02;;;;;;;9.77;3.35;;;;;;;;;;5090718;27;20115;-52
2023/07/02 18:35:28;;;;;;;10.90;4.13;;;;;;;;;;5090429;27;20044;-52
2023/07/02 18:37:54;;;;;;;7.72;3.15;;;;;;;;;;5090862;27;20365;-52
2023/07/02 18:40:22;;;;;;;9.45;4.32;;;;;;;;;;5089685;27;20041;-52
2023/07/02 18:42:49;;;;;;;10.57;3.10;;;;;;;;;;5090657;27;20044;-52
2023/07/02 18:45:18;;;;;;;9.48;3.22;;;;;;;;;;5090062;27;20110;-52
2023/07/02 18:47:45;;;;;;;6.90;3.10;;;;;;;;;;5089787;27;20099;-52
2023/07/02 18:50:13;;;;;;;10.43;3.17;;;;;;;;;;5090349;27;20111;-52
2023/07/02 18:52:39;;;;;;;9.15;3.55;;;;;;;;;;5088438;27;20052;-51
2023/07/02 18:55:06;;;;;;;6.05;2.80;;;;;;;;;;5086408;27;20041;-52
2023/07/02 18:57:32;;;;;;;8.95;2.58;;;;;;;;;;5089997;27;20133;-52
2023/07/02 18:59:59;;;;;;;6.07;2.20;;;;;;;;;;5089616;27;20029;-51
2023/07/02 19:02:25;;;;;;;8.70;3.08;;;;;;;;;;5089090;27;20110;-52
2023/07/02 19:04:52;;;;;;;8.27;2.78;;;;;;;;;;5090411;27;20040;-52
2023/07/02 19:07:19;;;;;;;4.47;2.25;;;;;;;;;;5090093;27;20048;-52
2023/07/02 19:09:45;;;;;;;3.80;1.90;;;;;;;;;;5089728;27;20588;-52
2023/07/02 19:12:11;;;;;;;9.55;4.10;;;;;;;;;;5089323;27;20666;-52
2023/07/02 19:14:38;;;;;;;8.32;2.83;;;;;;;;;;5090459;27;20127;-51
2023/07/02 19:17:08;;;;;;;6.18;3.47;;;;;;;;;;5078677;28;20581;-51
2023/07/02 19:19:36;;;;;;;13.40;3.13;;;;;;;;;;5089880;27;20077;-52
2023/07/02 19:22:02;;;;;;;7.78;3.28;;;;;;;;;;5089013;27;20044;-52
2023/07/02 19:24:28;;;;;;;9.57;2.75;;;;;;;;;;5089457;27;20044;-52
2023/07/02 19:26:54;;;;;;;8.63;3.50;;;;;;;;;;5089688;27;20542;-52
2023/07/02 19:29:20;;;;;;;6.70;2.90;;;;;;;;;;5089503;27;20048;-51
2023/07/02 19:31:47;;;;;;;8.80;3.05;;;;;;;;;;5089657;27;20048;-51
2023/07/02 19:34:14;;;;;;;10.23;3.13;;;;;;;;;;5089744;27;20136;-52
2023/07/02 19:36:40;;;;;;;7.53;3.20;;;;;;;;;;5092538;27;20062;-51
2023/07/02 19:39:06;;;;;;;10.20;3.40;;;;;;;;;;5092995;27;20090;-52
2023/07/02 19:41:32;;;;;;;8.40;3.92;;;;;;;;;;5093123;27;20047;-52
2023/07/02 19:43:58;;;;;;;9.45;4.25;;;;;;;;;;5092368;27;20584;-52
2023/07/02 19:46:25;;;;;;;9.80;2.95;;;;;;;;;;5092782;27;20535;-51
2023/07/02 19:48:51;;;;;;;9.18;3.78;;;;;;;;;;5092546;27;20040;-51
2023/07/02 19:51:17;;;;;;;10.05;3.28;;;;;;;;;;5092496;27;20040;-52
2023/07/02 19:53:44;;;;;;;11.30;3.42;;;;;;;;;;5092533;27;20051;-52
2023/07/02 19:56:10;;;;;;;8.93;3.10;;;;;;;;;;5088625;28;21650;-52
2023/07/02 19:58:39;;;;;;;7.28;3.08;;;;;;;;;;5092989;27;20044;-51
2023/07/02 20:01:09;;;;;;;9.07;2.83;;;;;;;;;;5092291;28;20376;-52
2023/07/02 20:03:35;;;;;;;8.68;3.97;;;;;;;;;;5092483;27;20036;-52
2023/07/02 20:06:01;;;;;;;5.65;2.83;;;;;;;;;;5091959;27;20053;-51
2023/07/02 20:08:28;;;;;;;9.60;3.65;;;;;;;;;;5092385;27;20083;-52
2023/07/02 20:10:54;;;;;;;5.50;2.78;;;;;;;;;;5092029;27;20389;-52
2023/07/02 20:13:20;;;;;;;5.65;2.88;;;;;;;;;;5091839;27;20046;-51
2023/07/02 20:15:47;;;;;;;4.85;2.78;;;;;;;;;;5092940;27;20032;-51
2023/07/02 20:18:13;;;;;;;7.88;4.20;;;;;;;;;;5091671;27;20053;-52
2023/07/02 20:20:39;;;;;;;6.90;3.47;;;;;;;;;;5092632;27;20519;-51
2023/07/02 20:23:05;;;;;;;9.73;4.13;;;;;;;;;;5091727;27;20044;-51
2023/07/02 20:25:31;;;;;;;6.50;2.65;;;;;;;;;;5092838;27;20120;-51
2023/07/02 20:27:57;;;;;;;6.57;3.13;;;;;;;;;;5091641;27;20512;-51
2023/07/02 20:30:23;;;;;;;11.30;3.55;;;;;;;;;;5091225;27;20047;-51
2023/07/02 20:32:50;;;;;;;5.85;2.78;;;;;;;;;;5091270;27;20051;-52
2023/07/02 20:35:18;;;;;;;9.10;3.38;;;;;;;;;;5092017;27;20051;-51
2023/07/02 20:37:49;;;;;;;6.47;3.35;;;;;;;;;;5091387;27;20044;-51
2023/07/02 20:40:15;;;;;;;7.22;2.47;;;;;;;;;;5091797;27;20059;-51
2023/07/02 20:42:42;;;;;;;8.82;2.80;;;;;;;;;;5091666;27;20045;-51
2023/07/02 20:45:16;;;;;;;5.18;2.28;;;;;;;;;;5090405;27;20981;-51
2023/07/02 20:47:43;;;;;;;13.10;3.17;;;;;;;;;;5090917;27;20037;-51
2023/07/02 20:50:13;;;;;;;9.05;2.70;;;;;;;;;;5091877;27;20072;-51
2023/07/02 20:52:39;;;;;;;6.95;2.80;;;;;;;;;;5091186;27;20230;-51
2023/07/02 20:55:06;;;;;;;7.45;2.70;;;;;;;;;;5092271;27;20095;-51
2023/07/02 20:57:32;;;;;;;8.55;3.38;;;;;;;;;;5091828;27;20881;-51
2023/07/02 20:59:59;;;;;;;7.95;2.80;;;;;;;;;;5092114;27;20086;-52
2023/07/02 21:02:25;;;;;;;8.85;4.03;;;;;;;;;;5091315;27;20051;-52
2023/07/02 21:04:56;;;;;;;7.15;3.08;;;;;;;;;;5091808;27;20036;-52
2023/07/02 21:07:23;;;;;;;5.93;2.63;;;;;;;;;;5091762;27;20603;-52